Time;durP1;ratioP1;P1;durP2;ratioP2;P2;SDS_P1;SDS_P2;PMS_P1;PMS_P2;Temp;Humidity;BMP_temperature;BMP_pressure;BME280_temperature;BME280_humidity;BME280_pressure;Samples;Min_cycle;Max_cycle;Signal;HPM_P1;HPM_P2
2022/11/04 00:00:32;;;;;;;2.87;2.30;;;9.80;99.90;;;;;;461418;257;27695;-70
2022/11/04 00:02:33;;;;;;;2.57;2.37;;;9.80;99.90;;;;;;461417;257;28165;-70
2022/11/04 00:04:34;;;;;;;3.10;2.80;;;9.80;99.90;;;;;;461415;257;28067;-71
2022/11/04 00:06:35;;;;;;;4.60;4.30;;;9.80;99.90;;;;;;461436;257;27543;-70
2022/11/04 00:08:37;;;;;;;7.23;6.60;;;9.80;99.90;;;;;;461419;257;28148;-70
2022/11/04 00:12:58;;;;;;;4.60;4.30;;;9.70;99.90;;;;;;461420;257;27942;-71
2022/11/04 00:17:18;;;;;;;4.60;4.20;;;9.70;99.90;;;;;;461441;257;27665;-70
2022/11/04 00:17:21;;;;;;;3.80;3.47;;;9.70;99.90;;;;;;460138;258;27918;-70
2022/11/04 00:19:20;;;;;;;3.63;3.40;;;9.70;99.90;;;;;;461339;258;27705;-68
2022/11/04 00:30:39;;;;;;;2.90;2.60;;;9.70;99.90;;;;;;461419;257;27789;-70
2022/11/04 00:35:00;;;;;;;2.73;2.50;;;9.70;99.90;;;;;;461419;257;28000;-68
2022/11/04 00:37:02;;;;;;;3.30;2.67;;;9.60;99.90;;;;;;461418;257;28189;-70
2022/11/04 00:39:03;;;;;;;3.77;2.00;;;9.60;99.90;;;;;;461420;257;28048;-71
2022/11/04 00:41:24;;;;;;;2.53;2.33;;;9.60;99.90;;;;;;461450;257;28156;-70
2022/11/04 00:43:05;;;;;;;4.40;2.27;;;9.60;99.90;;;;;;460243;257;28060;-71
2022/11/04 00:45:07;;;;;;;3.73;1.97;;;9.60;99.90;;;;;;461422;257;28035;-69
2022/11/04 00:47:08;;;;;;;2.20;2.10;;;9.70;99.90;;;;;;461417;257;28151;-70
2022/11/04 00:49:09;;;;;;;2.23;2.10;;;9.70;99.90;;;;;;461431;257;28173;-71
2022/11/04 00:51:10;;;;;;;3.27;2.60;;;9.60;99.90;;;;;;461431;257;28477;-70
2022/11/04 00:53:12;;;;;;;2.47;2.27;;;9.60;99.90;;;;;;461414;257;28402;-70
2022/11/04 00:55:13;;;;;;;5.03;2.60;;;9.60;99.90;;;;;;461423;257;28559;-70
2022/11/04 00:57:14;;;;;;;2.43;2.23;;;9.60;99.90;;;;;;461420;257;28380;-72
2022/11/04 00:59:16;;;;;;;2.83;2.27;;;9.50;99.90;;;;;;461448;257;28560;-72
2022/11/04 01:01:17;;;;;;;3.30;2.23;;;9.50;99.90;;;;;;461433;257;28120;-70
2022/11/04 01:03:18;;;;;;;2.40;2.20;;;9.50;99.90;;;;;;461408;257;28037;-71
2022/11/04 01:05:19;;;;;;;3.90;2.20;;;9.50;99.90;;;;;;461390;257;28002;-70
2022/11/04 01:07:21;;;;;;;2.37;2.17;;;9.40;99.90;;;;;;461401;257;28053;-71
2022/11/04 01:09:22;;;;;;;3.27;2.23;;;9.40;99.90;;;;;;461420;257;28058;-71
2022/11/04 01:11:23;;;;;;;2.60;2.10;;;9.40;99.90;;;;;;461430;257;27730;-70
2022/11/04 01:13:24;;;;;;;7.20;2.67;;;9.40;99.90;;;;;;461412;257;27929;-70
2022/11/04 01:15:25;;;;;;;2.50;2.10;;;9.40;99.90;;;;;;461409;257;28143;-70
2022/11/04 01:17:27;;;;;;;2.63;1.90;;;9.40;99.90;;;;;;461407;257;28141;-70
2022/11/04 01:19:28;;;;;;;3.10;2.30;;;9.40;99.90;;;;;;461415;257;27951;-71
2022/11/04 01:21:29;;;;;;;2.90;2.17;;;9.30;99.90;;;;;;461438;257;27828;-70
2022/11/04 01:23:30;;;;;;;2.83;2.10;;;9.40;99.90;;;;;;461417;257;28059;-71
2022/11/04 01:25:32;;;;;;;4.40;2.37;;;9.30;99.90;;;;;;461421;257;27778;-70
2022/11/04 01:27:33;;;;;;;2.40;2.20;;;9.30;99.90;;;;;;461399;257;28568;-70
2022/11/04 01:29:34;;;;;;;3.33;2.57;;;9.30;99.90;;;;;;461434;257;28795;-71
2022/11/04 01:31:35;;;;;;;2.50;2.30;;;9.30;99.90;;;;;;461432;257;28404;-70
2022/11/04 01:33:37;;;;;;;2.50;2.30;;;9.30;99.90;;;;;;461420;257;28600;-70
2022/11/04 01:35:38;;;;;;;3.63;2.23;;;9.30;99.90;;;;;;461439;257;28338;-70
2022/11/04 01:37:39;;;;;;;3.53;2.10;;;9.30;99.90;;;;;;461416;257;28440;-70
2022/11/04 01:39:40;;;;;;;2.87;2.00;;;9.20;99.90;;;;;;461439;257;28541;-70
2022/11/04 01:41:42;;;;;;;4.60;2.43;;;9.10;99.90;;;;;;461438;257;27894;-70
2022/11/04 01:43:43;;;;;;;3.73;2.20;;;9.10;99.90;;;;;;461429;257;28438;-70
2022/11/04 01:45:44;;;;;;;2.60;2.17;;;9.10;99.90;;;;;;461425;257;28196;-70
2022/11/04 01:47:45;;;;;;;2.40;2.20;;;9.10;99.90;;;;;;461412;257;27864;-70
2022/11/04 01:49:47;;;;;;;3.80;2.00;;;9.10;99.90;;;;;;461434;257;28054;-70
2022/11/04 01:51:48;;;;;;;8.70;2.10;;;9.00;99.90;;;;;;461432;257;27748;-70
2022/11/04 01:53:49;;;;;;;3.80;1.90;;;9.10;99.90;;;;;;461446;257;28077;-70
2022/11/04 01:55:50;;;;;;;2.60;2.30;;;9.10;99.90;;;;;;461394;257;28004;-70
2022/11/04 01:57:52;;;;;;;1.90;1.80;;;9.10;99.90;;;;;;461345;257;28183;-70
2022/11/04 01:59:53;;;;;;;2.30;2.10;;;9.10;99.90;;;;;;461395;257;27957;-71
2022/11/04 02:01:54;;;;;;;5.00;2.10;;;9.10;99.90;;;;;;461358;257;27580;-70
2022/11/04 02:03:56;;;;;;;2.40;2.00;;;9.10;99.90;;;;;;461383;257;28108;-70
2022/11/04 02:05:57;;;;;;;3.03;2.20;;;9.10;99.90;;;;;;461370;257;27888;-70
2022/11/04 02:08:00;;;;;;;2.00;1.90;;;9.10;99.90;;;;;;461356;257;28123;-70
2022/11/04 02:09:59;;;;;;;2.70;2.37;;;9.10;99.90;;;;;;461252;257;28029;-71
2022/11/04 02:14:20;;;;;;;2.30;1.97;;;9.00;99.90;;;;;;461403;257;28048;-68
2022/11/04 02:16:21;;;;;;;2.83;2.10;;;9.00;99.90;;;;;;461366;257;28074;-70
2022/11/04 02:18:22;;;;;;;2.10;1.90;;;9.00;99.90;;;;;;461434;257;27778;-70
2022/11/04 02:20:24;;;;;;;4.13;2.30;;;9.00;99.90;;;;;;461436;257;27814;-70
2022/11/04 02:22:25;;;;;;;4.33;1.80;;;9.00;99.90;;;;;;461416;257;28124;-70
2022/11/04 02:24:26;;;;;;;4.70;2.00;;;9.00;99.90;;;;;;461437;257;28627;-70
2022/11/04 02:26:27;;;;;;;5.47;2.13;;;9.00;99.90;;;;;;461430;257;29181;-70
2022/11/04 02:28:29;;;;;;;5.93;1.70;;;9.00;99.90;;;;;;461428;257;28599;-70
2022/11/04 02:30:30;;;;;;;3.27;1.90;;;9.00;99.90;;;;;;461437;257;28036;-71
2022/11/04 02:32:31;;;;;;;2.63;2.00;;;8.90;99.90;;;;;;461414;257;28107;-70
2022/11/04 02:34:32;;;;;;;2.73;1.90;;;8.80;99.90;;;;;;461420;257;28420;-70
2022/11/04 02:36:34;;;;;;;3.03;1.90;;;8.80;99.90;;;;;;461423;257;27695;-70
2022/11/04 02:38:35;;;;;;;1.60;1.50;;;8.80;99.90;;;;;;461419;257;28124;-70
2022/11/04 02:40:36;;;;;;;6.00;2.13;;;8.80;99.90;;;;;;461424;257;28132;-70
2022/11/04 02:42:37;;;;;;;3.27;1.93;;;8.80;99.90;;;;;;461401;257;28078;-70
2022/11/04 02:44:39;;;;;;;2.90;1.90;;;8.80;99.90;;;;;;461420;257;27655;-69
2022/11/04 02:46:40;;;;;;;4.77;2.03;;;8.80;99.90;;;;;;461394;257;28163;-70
2022/11/04 02:48:41;;;;;;;7.80;1.87;;;8.80;99.90;;;;;;461416;257;28164;-70
2022/11/04 02:50:42;;;;;;;1.80;1.70;;;8.80;99.90;;;;;;461368;257;28071;-70
2022/11/04 02:52:44;;;;;;;2.20;1.80;;;8.80;99.90;;;;;;461404;257;28085;-70
2022/11/04 02:54:45;;;;;;;3.80;1.73;;;8.90;99.90;;;;;;461387;257;28287;-70
2022/11/04 02:56:46;;;;;;;2.80;2.07;;;8.80;99.90;;;;;;461422;257;28024;-70
2022/11/04 02:58:47;;;;;;;4.17;1.80;;;8.80;99.90;;;;;;461409;257;28228;-70
2022/11/04 03:00:49;;;;;;;2.90;1.70;;;8.80;99.90;;;;;;461412;257;27773;-70
2022/11/04 03:02:51;;;;;;;5.40;2.07;;;8.80;99.90;;;;;;461393;257;27883;-70
2022/11/04 03:04:51;;;;;;;3.00;2.30;;;8.80;99.90;;;;;;461387;258;28461;-70
2022/11/04 03:06:52;;;;;;;1.90;1.77;;;8.80;99.90;;;;;;461393;257;28456;-70
2022/11/04 03:08:54;;;;;;;4.27;2.00;;;8.80;99.90;;;;;;461383;257;28322;-70
2022/11/04 03:10:55;;;;;;;2.40;1.80;;;8.80;99.90;;;;;;461432;257;28164;-71
2022/11/04 03:12:56;;;;;;;2.13;1.70;;;8.80;99.90;;;;;;461402;257;28470;-69
2022/11/04 03:14:58;;;;;;;2.00;1.90;;;8.80;99.90;;;;;;461400;257;28071;-70
2022/11/04 03:16:59;;;;;;;1.83;1.70;;;8.80;99.90;;;;;;461398;257;27909;-70
2022/11/04 03:19:00;;;;;;;2.23;1.70;;;8.80;99.90;;;;;;461391;257;28025;-70
2022/11/04 03:21:01;;;;;;;4.00;2.03;;;8.80;99.90;;;;;;461405;257;28169;-71
2022/11/04 03:23:02;;;;;;;1.90;1.80;;;8.80;99.90;;;;;;461426;257;27854;-70
2022/11/04 03:25:04;;;;;;;1.90;1.80;;;8.80;99.90;;;;;;461408;257;28449;-71
2022/11/04 03:27:05;;;;;;;3.23;2.23;;;8.90;99.90;;;;;;461396;257;28179;-70
2022/11/04 03:29:06;;;;;;;2.20;2.10;;;8.90;99.90;;;;;;461367;257;29096;-70
2022/11/04 03:31:07;;;;;;;3.67;2.20;;;8.90;99.90;;;;;;461283;257;28487;-71
2022/11/04 03:33:09;;;;;;;2.50;2.30;;;8.90;99.90;;;;;;460613;257;28272;-71
2022/11/04 03:35:10;;;;;;;3.70;2.10;;;8.90;99.90;;;;;;461370;257;28072;-70
2022/11/04 03:37:11;;;;;;;4.20;2.27;;;8.90;99.90;;;;;;461414;257;28227;-70
2022/11/04 03:39:12;;;;;;;2.57;2.00;;;8.80;99.90;;;;;;461413;257;28087;-70
2022/11/04 03:41:14;;;;;;;1.77;1.67;;;8.90;99.90;;;;;;461409;257;28059;-70
2022/11/04 03:43:15;;;;;;;2.57;1.90;;;8.80;99.90;;;;;;461406;257;28562;-70
2022/11/04 03:45:16;;;;;;;2.03;1.83;;;8.80;99.90;;;;;;461399;257;28596;-70
2022/11/04 03:47:17;;;;;;;3.67;2.00;;;8.90;99.90;;;;;;461411;257;29170;-70
2022/11/04 03:49:19;;;;;;;3.33;1.80;;;8.80;99.90;;;;;;461405;257;28637;-70
2022/11/04 03:51:20;;;;;;;4.83;2.23;;;8.80;99.90;;;;;;461416;257;28509;-71
2022/11/04 03:53:21;;;;;;;5.63;2.40;;;8.70;99.90;;;;;;461403;257;28491;-70
2022/11/04 03:55:22;;;;;;;4.10;1.70;;;8.80;99.90;;;;;;461406;257;28144;-70
2022/11/04 03:57:24;;;;;;;7.70;3.13;;;8.70;99.90;;;;;;461405;257;28049;-70
2022/11/04 03:59:25;;;;;;;2.20;2.00;;;8.70;99.90;;;;;;461406;257;27962;-70
2022/11/04 04:01:26;;;;;;;2.13;1.73;;;8.70;99.90;;;;;;461409;257;28090;-71
2022/11/04 04:03:27;;;;;;;5.83;1.90;;;8.80;99.90;;;;;;461388;257;28116;-70
2022/11/04 04:05:29;;;;;;;1.50;1.40;;;8.80;99.90;;;;;;461355;257;28033;-70
2022/11/04 04:07:30;;;;;;;2.27;1.67;;;8.80;99.90;;;;;;461393;257;28066;-69
2022/11/04 04:09:31;;;;;;;4.70;1.67;;;8.80;99.90;;;;;;461401;257;28123;-70
2022/11/04 04:11:32;;;;;;;2.50;1.53;;;8.80;99.90;;;;;;461416;257;27675;-71
2022/11/04 04:13:34;;;;;;;2.60;1.47;;;8.80;99.90;;;;;;461417;257;28037;-70
2022/11/04 04:15:35;;;;;;;4.50;1.77;;;8.80;99.90;;;;;;461408;257;28069;-70
2022/11/04 04:17:36;;;;;;;3.53;1.70;;;8.70;99.90;;;;;;461405;257;28460;-71
2022/11/04 04:19:37;;;;;;;1.60;1.50;;;8.80;99.90;;;;;;461416;257;28121;-70
2022/11/04 04:21:39;;;;;;;2.43;1.87;;;8.80;99.90;;;;;;461428;257;28057;-70
2022/11/04 04:28:19;;;;;;;2.53;1.70;;;8.70;99.90;;;;;;461464;257;28184;-68
2022/11/04 04:30:20;;;;;;;1.60;1.50;;;8.80;99.90;;;;;;461456;257;28446;-70
2022/11/04 04:32:21;;;;;;;1.70;1.60;;;8.70;99.90;;;;;;460754;257;28479;-70
2022/11/04 04:34:22;;;;;;;1.47;1.23;;;8.80;99.90;;;;;;460854;257;28780;-70
2022/11/04 04:36:24;;;;;;;1.97;1.40;;;8.80;99.90;;;;;;461461;257;27900;-70
2022/11/04 04:45:24;;;;;;;2.93;1.40;;;8.80;99.90;;;;;;461457;257;27805;-68
2022/11/04 04:47:25;;;;;;;2.43;1.80;;;8.70;99.90;;;;;;461443;257;27968;-71
2022/11/04 04:49:33;;;;;;;1.60;1.50;;;8.80;99.90;;;;;;461442;257;27802;-70
2022/11/04 04:51:27;;;;;;;1.50;1.40;;;8.80;99.90;;;;;;461018;257;27924;-71
2022/11/04 04:53:29;;;;;;;1.60;1.50;;;8.80;99.90;;;;;;461443;257;27991;-70
2022/11/04 04:55:33;;;;;;;1.53;1.33;;;8.80;99.90;;;;;;461404;257;28156;-70
2022/11/04 04:57:34;;;;;;;1.87;1.50;;;8.80;99.90;;;;;;461405;257;27814;-68
2022/11/04 04:59:35;;;;;;;2.80;1.50;;;8.80;99.90;;;;;;461458;257;28095;-72
2022/11/04 05:01:36;;;;;;;2.40;1.60;;;8.80;99.90;;;;;;461436;257;28142;-70
2022/11/04 05:03:38;;;;;;;1.73;1.37;;;8.80;99.90;;;;;;461402;257;28101;-70
2022/11/04 05:05:39;;;;;;;1.90;1.80;;;8.80;99.90;;;;;;461428;257;27551;-70
2022/11/04 05:07:40;;;;;;;1.80;1.70;;;8.80;99.90;;;;;;461376;257;28544;-70
2022/11/04 05:09:41;;;;;;;3.83;1.90;;;8.80;99.90;;;;;;461417;257;28434;-71
2022/11/04 05:11:43;;;;;;;2.10;1.93;;;8.80;99.90;;;;;;461429;257;28048;-71
2022/11/04 05:13:44;;;;;;;1.80;1.70;;;8.80;99.90;;;;;;461425;257;27806;-70
2022/11/04 05:15:45;;;;;;;1.77;1.67;;;8.80;99.90;;;;;;461415;258;28940;-70
2022/11/04 05:17:46;;;;;;;1.70;1.60;;;8.80;99.90;;;;;;461378;257;28337;-71
2022/11/04 05:19:48;;;;;;;1.60;1.50;;;8.80;99.90;;;;;;461424;257;28698;-71
2022/11/04 05:21:49;;;;;;;2.80;1.40;;;8.70;99.90;;;;;;461427;257;28148;-70
2022/11/04 05:23:50;;;;;;;2.10;1.60;;;8.70;99.90;;;;;;461426;257;28701;-69
2022/11/04 05:25:51;;;;;;;2.30;1.60;;;8.70;99.90;;;;;;461416;257;28510;-70
2022/11/04 05:27:53;;;;;;;2.00;1.53;;;8.70;99.90;;;;;;461406;257;28074;-70
2022/11/04 05:29:54;;;;;;;3.80;2.20;;;8.70;99.90;;;;;;461389;257;28056;-70
2022/11/04 05:31:55;;;;;;;2.87;2.27;;;8.70;99.90;;;;;;461409;257;28253;-70
2022/11/04 05:33:58;;;;;;;2.57;2.00;;;8.70;99.90;;;;;;461404;257;28156;-71
2022/11/04 05:35:58;;;;;;;4.17;1.87;;;8.70;99.90;;;;;;461326;257;28105;-70
2022/11/04 05:37:59;;;;;;;3.40;2.50;;;8.70;99.90;;;;;;461414;257;28067;-70
2022/11/04 05:40:00;;;;;;;2.10;1.73;;;8.70;99.90;;;;;;461416;257;28188;-70
2022/11/04 05:42:01;;;;;;;3.60;1.80;;;8.80;99.90;;;;;;461423;257;28003;-69
2022/11/04 05:44:03;;;;;;;2.20;2.03;;;8.70;99.90;;;;;;461444;257;28094;-70
2022/11/04 05:46:04;;;;;;;3.23;1.80;;;8.70;99.90;;;;;;461420;257;27908;-69
2022/11/04 05:48:05;;;;;;;2.30;2.00;;;8.70;99.90;;;;;;461391;257;28077;-69
2022/11/04 05:50:06;;;;;;;2.67;2.20;;;8.70;99.90;;;;;;461417;257;28059;-69
2022/11/04 05:52:08;;;;;;;2.23;1.60;;;8.60;99.90;;;;;;461434;257;28012;-70
2022/11/04 05:54:09;;;;;;;2.60;2.47;;;8.60;99.90;;;;;;461430;257;28121;-69
2022/11/04 05:56:10;;;;;;;2.77;2.57;;;8.60;99.90;;;;;;461426;257;28506;-69
2022/11/04 05:58:11;;;;;;;2.03;1.90;;;8.60;99.90;;;;;;461403;257;28530;-69
2022/11/04 06:00:13;;;;;;;2.63;2.30;;;8.60;99.90;;;;;;461424;257;29333;-69
2022/11/04 06:02:14;;;;;;;2.47;2.27;;;8.60;99.90;;;;;;461422;257;28089;-69
2022/11/04 06:04:15;;;;;;;2.67;2.17;;;8.60;99.90;;;;;;461434;257;28803;-69
2022/11/04 06:06:16;;;;;;;3.10;2.27;;;8.50;99.90;;;;;;461420;257;28554;-69
2022/11/04 06:08:18;;;;;;;2.80;2.40;;;8.50;99.90;;;;;;461401;257;28135;-70
2022/11/04 06:10:19;;;;;;;1.93;1.83;;;8.50;99.90;;;;;;461445;257;28052;-69
2022/11/04 06:12:20;;;;;;;9.00;2.47;;;8.40;99.90;;;;;;461391;257;28014;-69
2022/11/04 06:14:23;;;;;;;3.03;2.73;;;8.40;99.90;;;;;;461402;257;27976;-70
2022/11/04 06:16:23;;;;;;;2.30;2.10;;;8.40;99.90;;;;;;461360;258;28079;-69
2022/11/04 06:18:24;;;;;;;2.90;2.80;;;8.40;99.90;;;;;;461417;257;27981;-70
2022/11/04 06:20:25;;;;;;;2.60;2.40;;;8.50;99.90;;;;;;461422;257;27675;-70
2022/11/04 06:22:26;;;;;;;3.10;2.90;;;8.50;99.90;;;;;;461405;257;28071;-70
2022/11/04 06:24:28;;;;;;;2.83;2.50;;;8.50;99.90;;;;;;461419;257;27957;-69
2022/11/04 06:26:32;;;;;;;3.13;2.93;;;8.40;99.90;;;;;;461413;257;28072;-70
2022/11/04 06:28:30;;;;;;;2.40;2.30;;;8.40;99.90;;;;;;461081;257;27951;-69
2022/11/04 06:30:31;;;;;;;3.83;2.80;;;8.30;99.90;;;;;;461411;257;27847;-70
2022/11/04 06:32:33;;;;;;;7.80;2.20;;;8.40;99.90;;;;;;461374;257;27906;-69
2022/11/04 06:34:34;;;;;;;2.80;2.60;;;8.40;99.90;;;;;;461437;257;28171;-71
2022/11/04 06:36:35;;;;;;;2.20;2.03;;;8.40;99.90;;;;;;461393;257;28100;-69
2022/11/04 06:38:37;;;;;;;2.40;2.30;;;8.50;99.90;;;;;;461457;257;28611;-69
2022/11/04 06:40:38;;;;;;;2.60;2.20;;;8.50;99.90;;;;;;461321;257;28813;-69
2022/11/04 06:42:41;;;;;;;2.97;2.77;;;8.50;99.90;;;;;;461431;257;28352;-69
2022/11/04 06:44:40;;;;;;;3.27;2.50;;;8.50;99.90;;;;;;461298;257;28519;-70
2022/11/04 06:46:41;;;;;;;2.40;2.20;;;8.50;99.90;;;;;;461433;257;28077;-69
2022/11/04 06:48:43;;;;;;;2.93;2.20;;;8.50;99.90;;;;;;461398;257;28059;-70
2022/11/04 06:50:44;;;;;;;2.20;2.10;;;8.60;99.90;;;;;;461408;257;28047;-70
2022/11/04 06:52:45;;;;;;;3.20;2.33;;;8.60;99.90;;;;;;461429;257;27982;-70
2022/11/04 06:54:46;;;;;;;3.70;2.43;;;8.60;99.90;;;;;;461404;257;28146;-70
2022/11/04 06:56:48;;;;;;;3.10;2.73;;;8.60;99.90;;;;;;461397;257;28053;-69
2022/11/04 06:58:49;;;;;;;2.60;2.40;;;8.60;99.90;;;;;;461411;257;28080;-70
2022/11/04 07:00:51;;;;;;;2.20;2.00;;;8.60;99.90;;;;;;461389;257;28085;-69
2022/11/04 07:02:51;;;;;;;3.13;2.23;;;8.60;99.90;;;;;;461390;257;28027;-69
2022/11/04 07:04:53;;;;;;;2.33;2.23;;;8.70;99.90;;;;;;461419;257;28134;-70
2022/11/04 07:06:54;;;;;;;2.40;2.20;;;8.70;99.90;;;;;;461415;257;27667;-70
2022/11/04 07:08:55;;;;;;;2.57;2.17;;;8.70;99.90;;;;;;461399;257;27905;-69
2022/11/04 07:10:56;;;;;;;2.30;2.10;;;8.70;99.90;;;;;;461449;257;28050;-71
2022/11/04 07:12:57;;;;;;;2.13;2.00;;;8.70;99.90;;;;;;461426;257;28036;-69
2022/11/04 07:14:59;;;;;;;2.90;2.70;;;8.70;99.90;;;;;;461397;257;28455;-70
2022/11/04 07:17:00;;;;;;;2.40;2.20;;;8.70;99.90;;;;;;461413;257;28480;-69
2022/11/04 07:19:01;;;;;;;2.30;2.10;;;8.80;99.90;;;;;;461396;257;28475;-70
2022/11/04 07:21:02;;;;;;;1.43;1.37;;;8.70;99.90;;;;;;461427;257;28774;-71
2022/11/04 07:23:04;;;;;;;2.40;2.30;;;8.80;99.90;;;;;;461430;257;28270;-70
2022/11/04 07:25:05;;;;;;;2.37;2.10;;;8.80;99.90;;;;;;461425;257;28648;-69
2022/11/04 07:27:06;;;;;;;2.20;2.00;;;8.80;99.90;;;;;;461361;257;28053;-69
2022/11/04 07:29:09;;;;;;;4.97;2.20;;;8.80;99.90;;;;;;461394;257;28085;-70
2022/11/04 07:31:09;;;;;;;9.20;2.50;;;8.80;99.90;;;;;;461319;257;28085;-70
2022/11/04 07:33:10;;;;;;;6.03;2.10;;;8.90;99.90;;;;;;461422;257;28037;-69
2022/11/04 07:35:11;;;;;;;3.03;2.10;;;8.90;99.90;;;;;;461412;257;27815;-70
2022/11/04 07:37:12;;;;;;;2.50;1.90;;;8.90;99.90;;;;;;461400;257;28115;-70
2022/11/04 07:39:14;;;;;;;3.57;2.10;;;8.90;99.90;;;;;;461386;257;27959;-70
2022/11/04 07:41:15;;;;;;;3.60;1.93;;;8.90;99.90;;;;;;461415;257;27672;-70
2022/11/04 07:43:16;;;;;;;2.33;2.10;;;8.90;99.90;;;;;;461407;257;28056;-70
2022/11/04 07:45:17;;;;;;;2.00;1.90;;;8.90;99.90;;;;;;461416;257;28089;-70
2022/11/04 07:47:19;;;;;;;2.03;1.93;;;9.00;99.90;;;;;;461402;257;27544;-70
2022/11/04 07:49:20;;;;;;;2.10;1.90;;;9.00;99.90;;;;;;461404;257;28167;-70
2022/11/04 07:51:22;;;;;;;3.90;2.10;;;9.00;99.90;;;;;;461366;257;27838;-69
2022/11/04 07:53:22;;;;;;;2.40;2.00;;;9.00;99.90;;;;;;461431;257;28243;-70
2022/11/04 07:55:24;;;;;;;5.33;1.77;;;9.10;99.90;;;;;;461440;257;28489;-70
2022/11/04 07:57:25;;;;;;;2.20;2.00;;;9.10;99.90;;;;;;461427;257;28449;-70
2022/11/04 07:59:27;;;;;;;1.87;1.83;;;9.20;99.90;;;;;;461419;257;28894;-70
2022/11/04 08:01:27;;;;;;;3.80;2.03;;;9.20;99.90;;;;;;461435;257;28563;-70
2022/11/04 08:03:29;;;;;;;2.30;2.10;;;9.30;99.90;;;;;;461445;257;28537;-69
2022/11/04 08:05:30;;;;;;;2.20;2.00;;;9.40;99.90;;;;;;461412;257;27932;-71
2022/11/04 08:07:31;;;;;;;2.67;2.20;;;9.40;99.90;;;;;;461414;257;28056;-69
2022/11/04 08:09:32;;;;;;;2.87;2.63;;;9.40;99.90;;;;;;461421;257;27690;-70
2022/11/04 08:11:34;;;;;;;3.80;2.20;;;9.40;99.90;;;;;;461422;257;28055;-69
2022/11/04 08:13:35;;;;;;;2.00;1.90;;;9.50;99.90;;;;;;461423;257;27770;-70
2022/11/04 08:15:36;;;;;;;2.30;2.00;;;9.50;99.90;;;;;;461438;257;28053;-70
2022/11/04 08:17:37;;;;;;;3.33;2.00;;;9.60;99.90;;;;;;461422;257;28090;-70
2022/11/04 08:19:39;;;;;;;2.30;2.10;;;9.60;99.90;;;;;;461406;257;28151;-69
2022/11/04 08:21:40;;;;;;;2.50;2.30;;;9.60;99.90;;;;;;461433;257;27916;-69
2022/11/04 08:23:41;;;;;;;5.90;2.57;;;9.70;99.90;;;;;;461411;257;28027;-69
2022/11/04 08:25:42;;;;;;;2.40;2.07;;;9.80;99.90;;;;;;461426;257;27934;-70
2022/11/04 08:27:44;;;;;;;3.73;2.30;;;9.70;99.90;;;;;;461431;257;27988;-69
2022/11/04 08:29:45;;;;;;;3.10;2.40;;;9.70;99.90;;;;;;461430;257;27942;-70
2022/11/04 08:31:46;;;;;;;2.80;2.30;;;9.80;99.90;;;;;;461417;257;27885;-70
2022/11/04 08:33:47;;;;;;;2.30;2.20;;;9.80;99.90;;;;;;461423;257;28436;-70
2022/11/04 08:35:49;;;;;;;4.37;2.50;;;9.80;99.90;;;;;;461429;257;28403;-70
2022/11/04 08:37:50;;;;;;;2.37;2.20;;;9.80;99.90;;;;;;461446;257;28364;-70
2022/11/04 08:39:51;;;;;;;2.43;2.20;;;9.70;99.90;;;;;;461375;257;28577;-70
2022/11/04 08:41:52;;;;;;;5.43;2.47;;;9.70;99.90;;;;;;461444;257;28249;-70
2022/11/04 08:43:54;;;;;;;2.67;2.47;;;9.70;99.90;;;;;;461292;257;28501;-69
2022/11/04 08:45:55;;;;;;;3.73;2.60;;;9.80;99.90;;;;;;461387;257;28071;-70
2022/11/04 08:47:56;;;;;;;6.57;2.50;;;9.90;99.90;;;;;;461449;257;27889;-70
2022/11/04 08:49:57;;;;;;;2.37;2.27;;;9.90;99.90;;;;;;461429;257;28065;-70
2022/11/04 08:52:00;;;;;;;2.10;2.00;;;9.90;99.90;;;;;;461438;257;27965;-70
2022/11/04 08:54:00;;;;;;;1.90;1.70;;;9.90;99.90;;;;;;461369;257;28184;-70
2022/11/04 08:56:01;;;;;;;2.30;2.10;;;9.90;99.90;;;;;;461445;257;28149;-71
2022/11/04 08:58:03;;;;;;;4.43;2.13;;;9.90;99.90;;;;;;461421;257;28046;-69
2022/11/04 09:00:04;;;;;;;2.43;2.23;;;9.90;99.90;;;;;;461426;257;28152;-69
2022/11/04 09:02:05;;;;;;;3.43;2.37;;;9.90;99.90;;;;;;461428;257;28130;-70
2022/11/04 09:04:06;;;;;;;3.50;2.27;;;9.90;99.90;;;;;;461442;257;27898;-70
2022/11/04 09:06:08;;;;;;;6.00;1.60;;;9.80;99.90;;;;;;461449;257;27955;-71
2022/11/04 09:08:09;;;;;;;1.80;1.33;;;9.80;99.90;;;;;;461430;257;28134;-70
2022/11/04 09:10:10;;;;;;;1.90;1.40;;;9.80;99.90;;;;;;461436;257;28145;-69
2022/11/04 09:12:12;;;;;;;2.90;1.30;;;9.70;99.90;;;;;;461434;257;27784;-69
2022/11/04 09:14:12;;;;;;;3.30;1.70;;;9.70;99.90;;;;;;461342;257;28410;-69
2022/11/04 09:16:14;;;;;;;2.20;1.23;;;9.70;99.90;;;;;;461447;257;29121;-70
2022/11/04 09:18:15;;;;;;;1.87;1.33;;;9.70;99.90;;;;;;461385;257;28543;-70
2022/11/04 09:20:16;;;;;;;3.67;1.33;;;9.70;99.90;;;;;;461377;257;28385;-71
2022/11/04 09:22:17;;;;;;;4.90;2.73;;;9.60;99.90;;;;;;461349;257;28498;-69
2022/11/04 09:24:19;;;;;;;2.10;1.30;;;9.70;99.90;;;;;;461393;257;27965;-70
2022/11/04 09:26:20;;;;;;;4.37;1.70;;;9.60;99.90;;;;;;461365;257;27884;-70
2022/11/04 09:28:21;;;;;;;2.80;1.40;;;9.60;99.90;;;;;;459582;257;36577;-70
2022/11/04 09:30:22;;;;;;;3.03;1.77;;;9.60;99.90;;;;;;461401;257;27763;-69
2022/11/04 09:32:24;;;;;;;3.13;1.63;;;9.60;99.90;;;;;;461371;257;28219;-69
2022/11/04 09:34:25;;;;;;;4.90;1.60;;;9.60;99.90;;;;;;461422;257;27727;-70
2022/11/04 09:36:28;;;;;;;3.60;1.70;;;9.60;99.90;;;;;;461421;257;27900;-69
2022/11/04 09:38:27;;;;;;;1.93;1.60;;;9.60;99.90;;;;;;461367;257;27712;-69
2022/11/04 09:40:29;;;;;;;1.63;1.33;;;9.80;99.90;;;;;;461435;257;27831;-70
2022/11/04 09:42:30;;;;;;;2.50;1.20;;;10.00;99.90;;;;;;461404;257;28032;-69
2022/11/04 09:44:31;;;;;;;3.07;1.97;;;10.20;99.90;;;;;;461428;257;27884;-70
2022/11/04 09:46:32;;;;;;;3.03;1.40;;;10.20;99.90;;;;;;461422;257;28559;-70
2022/11/04 09:48:34;;;;;;;3.67;1.53;;;10.30;99.90;;;;;;461431;257;28648;-70
2022/11/04 09:50:35;;;;;;;2.27;1.60;;;10.20;99.90;;;;;;461412;257;28530;-70
2022/11/04 09:52:36;;;;;;;2.20;2.00;;;10.10;99.90;;;;;;461355;257;29309;-70
2022/11/04 09:54:38;;;;;;;2.20;1.67;;;10.00;99.90;;;;;;461432;257;28664;-70
2022/11/04 09:56:39;;;;;;;1.73;1.40;;;9.90;99.90;;;;;;461398;257;28163;-69
2022/11/04 09:58:40;;;;;;;2.43;1.70;;;9.90;99.90;;;;;;461421;257;28081;-70
2022/11/04 10:00:41;;;;;;;2.10;1.67;;;10.00;99.90;;;;;;461414;257;28029;-70
2022/11/04 10:02:42;;;;;;;1.90;1.67;;;9.90;99.90;;;;;;461423;257;28095;-70
2022/11/04 10:04:44;;;;;;;2.90;1.90;;;9.90;99.90;;;;;;461398;257;28050;-70
2022/11/04 10:06:45;;;;;;;2.50;1.37;;;9.90;99.90;;;;;;461405;257;28088;-70
2022/11/04 10:08:47;;;;;;;1.90;1.70;;;9.90;99.90;;;;;;461431;257;27689;-70
2022/11/04 10:10:47;;;;;;;1.70;1.60;;;9.90;99.90;;;;;;461406;257;28492;-70
2022/11/04 10:12:49;;;;;;;3.23;1.90;;;9.80;99.90;;;;;;461423;257;27830;-70
2022/11/04 10:14:50;;;;;;;2.97;2.23;;;9.80;99.90;;;;;;461411;257;28072;-70
2022/11/04 10:16:51;;;;;;;2.70;1.60;;;9.80;99.90;;;;;;461398;257;28149;-69
2022/11/04 10:18:52;;;;;;;3.33;1.77;;;9.80;99.90;;;;;;461410;257;27990;-70
2022/11/04 10:20:54;;;;;;;1.90;1.70;;;9.70;99.90;;;;;;461418;257;28024;-69
2022/11/04 10:22:56;;;;;;;1.97;1.87;;;9.80;99.90;;;;;;461428;257;28465;-70
2022/11/04 10:24:56;;;;;;;2.00;1.90;;;9.80;99.90;;;;;;461393;258;28146;-70
2022/11/04 10:26:58;;;;;;;1.67;1.57;;;9.80;99.90;;;;;;461416;257;28093;-69
2022/11/04 10:28:59;;;;;;;2.30;1.70;;;9.80;99.90;;;;;;461432;257;28152;-70
2022/11/04 10:31:00;;;;;;;2.33;1.70;;;9.70;99.90;;;;;;461452;257;28081;-71
2022/11/04 10:33:01;;;;;;;3.60;1.90;;;9.80;99.90;;;;;;461430;257;28135;-69
2022/11/04 10:35:02;;;;;;;2.87;1.60;;;9.80;99.90;;;;;;461411;257;28209;-70
2022/11/04 10:37:04;;;;;;;2.90;1.87;;;9.80;99.90;;;;;;461425;257;28197;-70
2022/11/04 10:39:05;;;;;;;1.60;1.37;;;9.90;99.90;;;;;;461417;257;28033;-69
2022/11/04 10:41:06;;;;;;;2.57;1.70;;;10.00;99.90;;;;;;461405;257;28052;-70
2022/11/04 10:43:07;;;;;;;3.03;1.70;;;10.10;99.90;;;;;;461418;257;28806;-70
2022/11/04 10:45:09;;;;;;;2.80;1.87;;;10.20;99.90;;;;;;461371;257;28070;-70
2022/11/04 10:47:10;;;;;;;3.10;1.87;;;10.30;99.90;;;;;;460610;257;29073;-70
2022/11/04 10:49:11;;;;;;;1.47;1.40;;;10.40;99.90;;;;;;460265;257;28145;-70
2022/11/04 10:51:19;;;;;;;2.00;1.80;;;10.50;99.90;;;;;;460195;257;28209;-70
2022/11/04 10:53:14;;;;;;;1.70;1.60;;;10.50;99.90;;;;;;460651;257;28043;-70
2022/11/04 10:55:15;;;;;;;2.17;1.70;;;10.40;99.90;;;;;;461422;251;28109;-70
2022/11/04 10:57:18;;;;;;;1.50;1.40;;;10.50;99.90;;;;;;461437;257;27960;-70
2022/11/04 10:59:17;;;;;;;1.73;1.63;;;10.50;99.90;;;;;;461326;257;28120;-70
2022/11/04 11:01:19;;;;;;;2.23;1.67;;;10.50;99.90;;;;;;461440;257;28190;-70
2022/11/04 11:03:20;;;;;;;1.63;1.53;;;10.50;99.90;;;;;;461411;257;28286;-70
2022/11/04 11:05:21;;;;;;;1.60;1.50;;;10.50;99.90;;;;;;461429;257;28555;-70